createdAt,value
2018-11-21T07:07:38.879Z,39.90
2018-11-21T07:10:09.189Z,33.17
2018-11-21T07:12:36.385Z,16.60
2018-11-21T07:15:04.117Z,25.13
2018-11-21T07:17:31.339Z,25.50
2018-11-21T07:19:58.518Z,25.40
2018-11-21T07:22:25.775Z,25.55
2018-11-21T07:24:53.084Z,24.07
2018-11-21T07:27:20.293Z,29.40
2018-11-21T07:29:47.549Z,29.25
2018-11-21T07:32:14.772Z,22.80
2018-11-21T07:34:41.969Z,24.37
2018-11-21T07:37:09.197Z,30.30
2018-11-21T07:39:36.387Z,24.45
2018-11-21T07:42:03.561Z,25.33
2018-11-21T07:44:30.802Z,29.65
2018-11-21T07:46:58.013Z,26.67
2018-11-21T07:49:25.192Z,30.00
2018-11-21T07:51:52.467Z,31.40
2018-11-21T07:54:19.666Z,48.87
2018-11-21T07:57:54.566Z,24.83
2018-11-21T08:00:52.473Z,24.17
2018-11-21T08:03:20.429Z,26.80
2018-11-21T08:05:50.423Z,29.67
2018-11-21T08:08:46.377Z,31.57
2018-11-21T08:11:31.952Z,29.63
2018-11-21T08:14:24.352Z,28.23
2018-11-21T08:17:14.078Z,25.40
2018-11-21T08:20:03.750Z,23.93
2018-11-21T08:22:59.558Z,22.17
2018-11-21T08:25:58.588Z,28.53
2018-11-21T08:28:31.768Z,29.13
2018-11-21T08:30:59.074Z,25.03
2018-11-21T08:33:26.708Z,28.70
2018-11-21T08:35:53.953Z,28.57
2018-11-21T08:38:21.162Z,18.13
2018-11-21T08:40:48.334Z,26.43
2018-11-21T08:43:15.578Z,33.00
2018-11-21T08:45:42.765Z,20.50
2018-11-21T08:48:10.332Z,23.17
2018-11-21T08:50:37.565Z,28.47
2018-11-21T08:53:05.611Z,24.40
2018-11-21T08:55:32.792Z,25.30
2018-11-21T08:58:00.011Z,23.57
2018-11-21T09:00:27.194Z,25.20
2018-11-21T09:02:54.394Z,25.23
2018-11-21T09:05:21.629Z,29.07
2018-11-21T09:07:48.877Z,18.57
2018-11-21T09:10:16.063Z,23.60
2018-11-21T09:12:43.303Z,31.03
2018-11-21T09:15:15.040Z,32.60
2018-11-21T09:17:42.778Z,41.40
2018-11-21T09:20:10.594Z,31.37
2018-11-21T09:22:37.835Z,20.60
2018-11-21T09:25:06.852Z,26.50
2018-11-21T09:27:34.374Z,24.70
2018-11-21T09:30:01.902Z,23.80
2018-11-21T09:32:29.172Z,24.40
2018-11-21T09:34:56.405Z,24.43
2018-11-21T09:37:23.580Z,20.57
2018-11-21T09:39:51.164Z,31.27
2018-11-21T09:42:18.376Z,22.90
2018-11-21T09:44:45.552Z,23.23
2018-11-21T09:47:12.716Z,28.80
2018-11-21T09:49:39.986Z,38.43
2018-11-21T09:52:07.331Z,34.23
2018-11-21T09:54:34.489Z,25.80
2018-11-21T09:57:01.710Z,30.43
2018-11-21T09:59:28.887Z,25.93
2018-11-21T10:02:37.182Z,35.43
2018-11-21T10:05:05.008Z,44.97
2018-11-21T10:07:32.709Z,29.90
2018-11-21T10:09:59.934Z,27.70
2018-11-21T10:12:27.112Z,30.83
2018-11-21T10:14:54.290Z,27.80
2018-11-21T10:17:21.572Z,24.70
2018-11-21T10:19:48.760Z,28.93
2018-11-21T10:22:15.946Z,29.43
2018-11-21T10:24:43.156Z,23.93
2018-11-21T10:27:10.330Z,21.17
2018-11-21T10:29:37.566Z,26.63
2018-11-21T10:32:04.800Z,32.40
2018-11-21T10:34:31.976Z,31.43
2018-11-21T10:36:59.258Z,28.17
2018-11-21T10:39:26.431Z,29.77
2018-11-21T10:41:53.604Z,25.47
2018-11-21T10:44:20.812Z,27.93
2018-11-21T10:46:48.004Z,23.43
2018-11-21T10:49:15.189Z,24.87
2018-11-21T10:51:42.478Z,26.70
2018-11-21T10:54:09.936Z,20.93
2018-11-21T10:56:37.116Z,23.03
2018-11-21T10:59:04.444Z,21.07
2018-11-21T11:01:49.972Z,20.27
2018-11-21T11:04:40.898Z,21.70
2018-11-21T11:07:33.789Z,18.30
2018-11-21T11:10:18.959Z,20.87
2018-11-21T11:13:11.582Z,21.63
2018-11-21T11:16:09.079Z,20.97
2018-11-21T11:18:58.464Z,25.40
2018-11-21T11:21:54.298Z,22.30
2018-11-21T11:24:39.714Z,24.10
2018-11-21T11:27:25.068Z,34.57
2018-11-21T11:30:11.824Z,27.70
2018-11-21T11:32:48.152Z,42.83
2018-11-21T11:35:37.784Z,26.77
2018-11-21T11:38:27.508Z,17.53
2018-11-21T11:41:20.005Z,20.67
2018-11-21T11:44:05.312Z,26.03
2018-11-21T11:46:53.036Z,16.97
2018-11-21T11:49:45.759Z,25.90
2018-11-21T11:52:44.616Z,26.00
2018-11-21T11:55:40.300Z,16.33
2018-11-21T11:58:25.625Z,20.27
2018-11-21T12:01:30.394Z,14.37
2018-11-21T12:04:20.001Z,13.67
2018-11-21T12:07:18.999Z,30.47
2018-11-21T12:09:59.300Z,20.33
2018-11-21T12:13:04.146Z,27.47
2018-11-21T12:15:53.785Z,17.53
2018-11-21T12:18:43.560Z,19.40
2018-11-21T12:21:39.463Z,24.47
2018-11-21T12:24:35.491Z,25.70
2018-11-21T12:27:22.248Z,17.63
2018-11-21T12:30:11.848Z,26.33
2018-11-21T12:33:04.689Z,23.83
2018-11-21T12:35:44.387Z,20.40
2018-11-21T12:38:31.122Z,29.37
2018-11-21T12:41:30.108Z,25.07
2018-11-21T12:44:12.950Z,24.53
2018-11-21T12:47:15.031Z,18.07
2018-11-21T12:50:00.310Z,20.00
2018-11-21T12:52:49.749Z,22.53
2018-11-21T12:55:35.281Z,20.80
2018-11-21T12:58:22.081Z,22.97
2018-11-21T13:01:12.026Z,22.37
2018-11-21T13:03:57.822Z,19.53
2018-11-21T13:06:57.091Z,23.93
2018-11-21T13:09:46.901Z,26.70
2018-11-21T13:12:33.746Z,25.40
2018-11-21T13:15:20.788Z,24.13
2018-11-21T13:17:56.206Z,29.90
2018-11-21T13:21:01.012Z,26.47
2018-11-21T13:23:50.652Z,31.43
2018-11-21T13:26:33.500Z,30.70
2018-11-21T13:29:18.775Z,34.73
2018-11-21T13:32:12.278Z,30.20
2018-11-21T13:35:05.416Z,28.93
2018-11-21T13:37:51.871Z,24.23
2018-11-21T13:40:53.822Z,24.77
2018-11-21T13:43:52.744Z,27.87
2018-11-21T13:46:42.832Z,34.57
2018-11-21T13:52:51.085Z,48.67
2018-11-21T13:55:18.986Z,37.60
2018-11-21T13:57:46.468Z,43.83
2018-11-21T14:00:13.651Z,39.53
2018-11-21T14:02:40.936Z,43.60
2018-11-21T14:05:10.256Z,62.40
2018-11-21T14:07:37.779Z,70.27
2018-11-21T14:10:07.883Z,75.50
2018-11-21T14:12:36.887Z,55.07
2018-11-21T14:15:05.241Z,47.97
2018-11-21T14:17:32.563Z,64.93
2018-11-21T14:19:59.744Z,48.77
2018-11-21T14:22:26.971Z,55.77
2018-11-21T14:24:54.193Z,58.07
2018-11-21T14:27:21.416Z,61.50
2018-11-21T14:29:48.616Z,62.27
2018-11-21T14:32:15.868Z,53.57
2018-11-21T14:34:43.199Z,51.67
2018-11-21T14:37:10.381Z,47.17
2018-11-21T14:39:37.718Z,50.33
2018-11-21T14:42:08.425Z,51.00
2018-11-21T14:44:32.128Z,50.10
2018-11-21T14:47:02.362Z,45.10
2018-11-21T14:49:29.616Z,52.77
2018-11-21T14:51:56.857Z,62.60
2018-11-21T14:54:24.073Z,57.50
2018-11-21T14:56:51.279Z,57.90
2018-11-21T14:59:18.467Z,62.40
2018-11-21T15:01:45.711Z,54.57
2018-11-21T15:04:13.541Z,51.60
2018-11-21T15:06:40.725Z,61.13
2018-11-21T15:09:09.365Z,66.83
2018-11-21T15:11:36.650Z,55.97
2018-11-21T15:14:04.158Z,54.63
2018-11-21T15:16:31.409Z,72.47
2018-11-21T15:18:58.603Z,79.07
2018-11-21T15:21:25.789Z,73.50
2018-11-21T15:23:53.003Z,69.80
2018-11-21T15:26:21.142Z,50.60
2018-11-21T15:28:51.832Z,41.63
2018-11-21T15:31:19.107Z,47.30
2018-11-21T15:33:46.302Z,62.50
2018-11-21T15:36:13.501Z,54.73
2018-11-21T15:38:40.853Z,47.20
2018-11-21T15:41:08.066Z,42.73
2018-11-21T15:43:35.249Z,48.50
2018-11-21T15:46:02.498Z,39.87
2018-11-21T15:48:29.689Z,35.17
2018-11-21T15:50:56.903Z,41.73
2018-11-21T15:53:24.148Z,47.00
2018-11-21T15:55:51.346Z,45.10
2018-11-21T15:58:18.631Z,46.00
2018-11-21T16:00:45.861Z,48.50
2018-11-21T16:05:48.447Z,53.07
2018-11-21T16:08:15.787Z,39.97
2018-11-21T16:10:44.515Z,44.30
2018-11-21T16:13:11.785Z,43.83
2018-11-21T16:15:47.076Z,45.03
2018-11-21T16:18:14.956Z,54.83
2018-11-21T16:20:42.178Z,35.17
2018-11-21T16:23:09.412Z,38.40
2018-11-21T16:25:36.595Z,33.60
2018-11-21T16:28:03.871Z,42.13
2018-11-21T16:30:31.133Z,40.90
2018-11-21T16:32:58.315Z,30.30
2018-11-21T16:35:26.481Z,41.50
2018-11-21T16:37:53.849Z,30.80
2018-11-21T16:40:22.789Z,40.30
2018-11-21T16:42:51.391Z,26.00
2018-11-21T16:45:20.521Z,19.13
2018-11-21T16:47:49.081Z,23.30
2018-11-21T16:50:18.873Z,28.83
2018-11-21T16:52:46.373Z,36.70
2018-11-21T16:55:15.167Z,29.70
2018-11-21T16:57:42.909Z,39.57
2018-11-21T17:00:12.726Z,44.77
2018-11-21T17:02:39.959Z,28.10
2018-11-21T17:05:08.670Z,33.87
2018-11-21T17:07:35.917Z,30.07
2018-11-21T17:10:03.759Z,26.13
2018-11-21T17:12:30.952Z,29.77
2018-11-21T17:14:58.185Z,31.10
2018-11-21T17:17:25.363Z,44.70
2018-11-21T17:19:52.554Z,29.83
2018-11-21T17:22:19.769Z,38.77
2018-11-21T17:24:46.993Z,22.70
2018-11-21T17:27:14.269Z,25.80
2018-11-21T17:29:53.445Z,29.30
2018-11-21T17:32:09.010Z,32.20
2018-11-21T17:34:36.225Z,30.80
2018-11-21T17:37:03.476Z,22.40
2018-11-21T17:39:30.689Z,26.70
2018-11-21T17:41:57.885Z,25.97
2018-11-21T17:44:25.124Z,28.03
2018-11-21T17:46:52.355Z,38.23
2018-11-21T17:49:19.616Z,37.60
2018-11-21T17:51:46.857Z,36.83
2018-11-21T17:54:14.089Z,42.03
2018-11-21T17:56:41.551Z,53.83
2018-11-21T17:59:08.750Z,26.83
2018-11-21T18:01:35.934Z,27.10
2018-11-21T18:04:03.191Z,33.27
2018-11-21T18:06:30.484Z,29.53
2018-11-21T18:08:57.721Z,32.07
2018-11-21T18:11:24.974Z,37.90
2018-11-21T18:13:52.180Z,36.57
2018-11-21T18:16:19.377Z,33.47
2018-11-21T18:18:46.641Z,31.67
2018-11-21T18:21:16.359Z,39.67
2018-11-21T18:23:41.083Z,42.50
2018-11-21T18:26:08.303Z,38.77
2018-11-21T18:28:35.510Z,36.47
2018-11-21T18:31:02.758Z,33.63
2018-11-21T18:33:30.126Z,42.50
2018-11-21T18:35:57.301Z,45.47
2018-11-21T18:38:24.520Z,47.53
2018-11-21T18:40:51.803Z,48.40
2018-11-21T18:43:19.027Z,31.77
2018-11-21T18:45:46.899Z,46.20
2018-11-21T18:48:14.246Z,42.17
2018-11-21T18:50:41.487Z,48.43
2018-11-21T18:53:09.363Z,51.00
2018-11-21T18:55:44.848Z,53.17
2018-11-21T18:58:33.648Z,60.80
2018-11-21T19:01:00.897Z,41.13
2018-11-21T19:03:28.104Z,48.93
2018-11-21T19:05:55.378Z,47.97
2018-11-21T19:08:22.633Z,49.47
2018-11-21T19:10:50.424Z,29.23
2018-11-21T19:13:17.652Z,41.73
2018-11-21T19:15:44.919Z,42.27
2018-11-21T19:18:12.267Z,39.00
2018-11-21T19:20:39.532Z,44.97
2018-11-21T19:23:06.773Z,35.93
2018-11-21T19:25:34.009Z,48.73
2018-11-21T19:28:01.223Z,42.97
2018-11-21T19:30:28.705Z,40.43
2018-11-21T19:32:55.954Z,42.60
2018-11-21T19:35:23.154Z,41.33
2018-11-21T19:37:50.679Z,40.47
2018-11-21T19:40:17.889Z,53.93
2018-11-21T19:42:45.130Z,105.17
2018-11-21T19:45:13.827Z,65.10
2018-11-21T19:47:41.306Z,52.33
2018-11-21T19:50:10.611Z,40.77
2018-11-21T19:52:38.481Z,42.43
2018-11-21T19:55:07.765Z,57.97
2018-11-21T19:57:35.005Z,41.13
2018-11-21T20:00:03.339Z,41.67
2018-11-21T20:02:30.574Z,50.73
2018-11-21T20:04:57.789Z,41.80
2018-11-21T20:07:25.062Z,50.13
2018-11-21T20:09:52.333Z,53.70
2018-11-21T20:12:25.957Z,79.50
2018-11-21T20:14:53.281Z,55.17
2018-11-21T20:17:20.507Z,49.67
2018-11-21T20:19:47.728Z,63.80
2018-11-21T20:22:15.769Z,55.07
2018-11-21T20:24:43.181Z,48.93
2018-11-21T20:27:10.406Z,55.17
2018-11-21T20:29:37.598Z,61.30
2018-11-21T20:32:04.939Z,47.77
2018-11-21T20:34:32.201Z,42.33
2018-11-21T20:36:59.433Z,44.23
2018-11-21T20:39:28.676Z,46.13
2018-11-21T20:41:55.949Z,51.43
2018-11-21T20:44:23.865Z,54.60
2018-11-21T20:46:51.120Z,56.43
2018-11-21T20:49:18.376Z,54.20
2018-11-21T20:51:45.581Z,56.77
2018-11-21T20:54:12.809Z,48.83
2018-11-21T20:56:40.079Z,46.00
2018-11-21T20:59:07.296Z,41.57
2018-11-21T21:01:34.520Z,40.23
2018-11-21T21:04:01.797Z,48.17
2018-11-21T21:06:29.091Z,49.07
2018-11-21T21:08:56.337Z,42.73
2018-11-21T21:11:25.689Z,47.70
2018-11-21T21:13:52.912Z,47.97
2018-11-21T21:16:20.104Z,54.13
2018-11-21T21:18:47.368Z,52.10
2018-11-21T21:21:15.916Z,63.67
2018-11-21T21:23:41.763Z,56.60
2018-11-21T21:26:09.001Z,52.43
2018-11-21T21:28:36.273Z,63.67
2018-11-21T21:31:03.520Z,54.97
2018-11-21T21:33:30.794Z,36.73
2018-11-21T21:35:58.005Z,45.43
2018-11-21T21:38:25.196Z,54.53
2018-11-21T21:40:52.458Z,54.30
2018-11-21T21:43:19.662Z,57.40
2018-11-21T21:45:46.873Z,54.00
2018-11-21T21:48:14.180Z,47.57
2018-11-21T21:50:41.384Z,53.43
2018-11-21T21:53:08.693Z,55.07
2018-11-21T21:55:35.960Z,50.10
2018-11-21T21:58:03.236Z,42.43
2018-11-21T22:00:30.492Z,42.87
2018-11-21T22:02:58.704Z,37.40
2018-11-21T22:05:25.928Z,37.33
2018-11-21T22:07:53.129Z,46.27
2018-11-21T22:10:20.979Z,42.57
2018-11-21T22:12:48.201Z,37.93
2018-11-21T22:15:25.665Z,41.60
2018-11-21T22:17:53.647Z,42.20
2018-11-21T22:20:21.031Z,39.53
2018-11-21T22:22:48.736Z,42.73
2018-11-21T22:25:15.944Z,39.17
2018-11-21T22:27:43.133Z,38.47
2018-11-21T22:30:12.425Z,47.03
2018-11-21T22:32:40.236Z,37.10
2018-11-21T22:35:07.988Z,46.67
2018-11-21T22:37:38.077Z,37.70
2018-11-21T22:40:02.755Z,39.87
2018-11-21T22:42:29.998Z,38.17
2018-11-21T22:44:57.323Z,37.57
2018-11-21T22:47:24.561Z,41.07
2018-11-21T22:49:51.788Z,37.77
2018-11-21T22:52:19.034Z,37.57
2018-11-21T22:54:46.263Z,41.03
2018-11-21T22:57:13.502Z,34.67
2018-11-21T22:59:40.787Z,33.33
2018-11-21T23:02:08.014Z,42.47
2018-11-21T23:04:35.246Z,33.80
2018-11-21T23:07:02.508Z,37.07
2018-11-21T23:09:29.802Z,31.27
2018-11-21T23:11:57.069Z,29.20
2018-11-21T23:14:24.325Z,33.83
2018-11-21T23:16:51.530Z,38.70
2018-11-21T23:19:18.772Z,33.77
2018-11-21T23:21:46.110Z,37.30
2018-11-21T23:24:13.320Z,38.47
2018-11-21T23:26:40.556Z,30.37
2018-11-21T23:29:07.813Z,31.67
2018-11-21T23:31:35.044Z,35.53
2018-11-21T23:34:02.294Z,37.40
2018-11-21T23:36:29.544Z,37.90
2018-11-21T23:38:56.760Z,37.00
2018-11-21T23:41:23.966Z,42.40
2018-11-21T23:43:51.235Z,35.63
2018-11-21T23:46:18.456Z,28.03
2018-11-21T23:48:45.710Z,38.63
2018-11-21T23:51:12.966Z,34.73
2018-11-21T23:53:40.160Z,43.17
2018-11-21T23:56:07.380Z,30.23
2018-11-21T23:58:34.626Z,38.57
